Time;durP1;ratioP1;P1;durP2;ratioP2;P2;SDS_P1;SDS_P2;PMS_P1;PMS_P2;Temp;Humidity;BMP_temperature;BMP_pressure;BME280_temperature;BME280_humidity;BME280_pressure;Samples;Min_cycle;Max_cycle;Signal;HPM_P1;HPM_P2
2022/08/25 00:01:27;;;;;;;7.33;5.60;;;20.30;99.90;;;;;;5079144;28;20264;-67
2022/08/25 00:03:53;;;;;;;5.00;4.33;;;20.30;99.90;;;;;;5078170;28;20186;-67
2022/08/25 00:06:20;;;;;;;4.73;4.10;;;20.00;99.90;;;;;;5079682;28;20559;-69
2022/08/25 00:08:46;;;;;;;4.97;4.57;;;19.30;99.90;;;;;;5079565;28;20267;-67
2022/08/25 00:11:16;;;;;;;5.07;4.67;;;17.60;99.90;;;;;;5079421;28;20211;-70
2022/08/25 00:13:44;;;;;;;6.63;5.43;;;18.10;99.90;;;;;;5078932;28;20206;-69
2022/08/25 00:16:12;;;;;;;4.17;3.97;;;18.00;99.90;;;;;;5077769;28;20271;-68
2022/08/25 00:18:40;;;;;;;4.93;4.43;;;16.60;99.90;;;;;;5079377;28;20215;-67
2022/08/25 00:21:07;;;;;;;5.83;5.33;;;19.30;99.90;;;;;;5078793;28;20253;-68
2022/08/25 00:23:33;;;;;;;4.57;4.27;;;19.20;99.90;;;;;;5081988;28;20187;-69
2022/08/25 00:25:58;;;;;;;5.60;4.97;;;18.70;99.90;;;;;;5080141;28;20207;-68
2022/08/25 00:28:24;;;;;;;14.63;5.53;;;17.60;99.90;;;;;;5079426;28;20240;-68
2022/08/25 00:30:50;;;;;;;3.70;3.50;;;13.50;99.90;;;;;;5079049;28;20193;-68
2022/08/25 00:33:17;;;;;;;4.50;4.20;;;14.00;99.90;;;;;;5079314;28;20188;-67
2022/08/25 00:35:44;;;;;;;5.53;5.00;;;14.50;99.90;;;;;;5078773;28;20587;-69
2022/08/25 00:38:11;;;;;;;6.53;4.97;;;20.20;99.90;;;;;;5079179;28;20171;-67
2022/08/25 00:40:38;;;;;;;9.37;4.30;;;20.30;99.90;;;;;;5079414;28;20407;-67
2022/08/25 00:43:05;;;;;;;4.27;3.87;;;20.10;99.90;;;;;;5078628;28;20204;-68
2022/08/25 00:45:32;;;;;;;5.23;4.83;;;19.10;99.90;;;;;;5077804;28;20214;-68
2022/08/25 00:47:58;;;;;;;4.47;4.07;;;19.50;99.90;;;;;;5077987;28;20595;-74
2022/08/25 00:50:24;;;;;;;6.13;5.47;;;19.60;99.90;;;;;;5078294;28;20205;-68
2022/08/25 00:52:54;;;;;;;5.47;4.87;;;19.60;99.90;;;;;;5077904;28;20179;-70
2022/08/25 00:55:26;;;;;;;4.60;4.30;;;19.50;99.90;;;;;;5078969;28;20586;-73
2022/08/25 00:58:00;;;;;;;5.57;5.17;;;19.20;99.90;;;;;;5078711;28;20187;-73
2022/08/25 01:00:35;;;;;;;4.00;3.60;;;14.50;99.90;;;;;;5078287;28;20199;-68
2022/08/25 01:03:00;;;;;;;4.97;4.47;;;16.40;99.90;;;;;;5078285;28;20526;-68
2022/08/25 01:05:27;;;;;;;5.07;4.07;;;16.40;99.90;;;;;;5077957;28;20343;-67
2022/08/25 01:07:55;;;;;;;5.00;4.60;;;15.10;99.90;;;;;;5077959;28;20497;-67
2022/08/25 01:10:22;;;;;;;4.83;4.53;;;14.70;99.90;;;;;;5078434;28;20179;-67
2022/08/25 01:12:49;;;;;;;3.97;3.60;;;14.00;99.90;;;;;;5078497;28;20226;-67
2022/08/25 01:15:16;;;;;;;6.03;4.20;;;16.20;99.90;;;;;;5077808;28;20182;-68
2022/08/25 01:17:54;;;;;;;4.63;4.33;;;14.40;99.90;;;;;;5077937;28;20183;-67
2022/08/25 01:20:26;;;;;;;5.90;4.77;;;14.90;99.90;;;;;;5077196;28;20216;-68
2022/08/25 01:22:53;;;;;;;4.00;3.80;;;14.60;99.90;;;;;;5077982;28;20607;-67
2022/08/25 01:25:40;;;;;;;5.23;4.70;;;13.60;99.90;;;;;;5078098;28;20252;-68
2022/08/25 01:28:06;;;;;;;10.00;4.63;;;12.50;99.90;;;;;;5078647;28;20583;-70
2022/08/25 01:30:33;;;;;;;6.10;4.93;;;17.50;99.90;;;;;;5092571;28;20201;-71
2022/08/25 01:33:01;;;;;;;11.33;5.30;;;17.30;99.90;;;;;;5080189;28;20178;-69
2022/08/25 01:35:27;;;;;;;5.20;4.90;;;16.90;99.90;;;;;;5092238;28;20191;-75
2022/08/25 01:37:52;;;;;;;4.47;3.50;;;16.20;99.90;;;;;;5077857;28;20218;-72
2022/08/25 01:40:19;;;;;;;4.63;4.20;;;14.90;99.90;;;;;;5076208;28;20179;-69
2022/08/25 01:43:13;;;;;;;4.67;4.37;;;16.50;99.90;;;;;;5077509;28;20179;-72
2022/08/25 01:45:42;;;;;;;5.47;5.10;;;16.70;99.90;;;;;;5077218;28;20207;-66
2022/08/25 01:48:09;;;;;;;4.60;4.20;;;13.10;99.90;;;;;;5076305;28;20492;-70
2022/08/25 01:50:35;;;;;;;4.57;4.17;;;14.00;99.90;;;;;;5076526;28;20598;-71
2022/08/25 01:53:10;;;;;;;5.27;4.90;;;14.10;99.90;;;;;;5076471;28;20278;-70
2022/08/25 01:55:51;;;;;;;4.60;4.30;;;14.10;99.90;;;;;;5077549;28;20179;-66
2022/08/25 01:58:26;;;;;;;8.47;4.17;;;13.60;99.90;;;;;;5080457;28;20594;-67
2022/08/25 02:00:55;;;;;;;5.27;4.57;;;14.50;99.90;;;;;;5077373;28;20194;-69
2022/08/25 02:03:23;;;;;;;5.70;4.67;;;14.70;99.90;;;;;;5076885;28;20234;-75
2022/08/25 02:05:49;;;;;;;4.60;4.13;;;14.60;99.90;;;;;;5076580;28;20641;-73
2022/08/25 02:08:15;;;;;;;4.77;4.37;;;14.50;99.90;;;;;;5077492;28;20489;-74
2022/08/25 02:10:41;;;;;;;8.27;4.60;;;14.40;99.90;;;;;;5077557;28;20183;-72
2022/08/25 02:13:08;;;;;;;4.90;4.30;;;16.80;99.90;;;;;;5076313;28;20260;-76
2022/08/25 02:15:34;;;;;;;5.20;4.70;;;13.50;99.90;;;;;;5077313;28;20284;-71
2022/08/25 02:18:00;;;;;;;4.80;4.33;;;13.30;99.90;;;;;;5077367;28;20171;-70
2022/08/25 02:20:26;;;;;;;4.27;3.97;;;14.00;99.90;;;;;;5076460;28;20201;-70
2022/08/25 02:22:52;;;;;;;5.30;4.90;;;13.40;99.90;;;;;;5077404;28;20540;-71
2022/08/25 02:25:19;;;;;;;14.73;5.37;;;13.50;99.90;;;;;;5077347;28;20215;-71
2022/08/25 02:27:45;;;;;;;5.20;4.73;;;14.00;99.90;;;;;;5077150;28;20181;-73
2022/08/25 02:30:13;;;;;;;4.47;4.07;;;13.70;99.90;;;;;;5082540;28;20217;-76
2022/08/25 02:32:39;;;;;;;4.10;3.80;;;14.10;99.90;;;;;;5083472;28;20183;-74
2022/08/25 02:35:06;;;;;;;4.97;4.53;;;13.50;99.90;;;;;;5076002;28;20626;-68
2022/08/25 02:37:32;;;;;;;5.50;5.13;;;15.50;99.90;;;;;;5082293;28;20190;-73
2022/08/25 02:39:58;;;;;;;6.30;5.60;;;16.40;99.90;;;;;;5076650;28;20610;-73
2022/08/25 02:42:25;;;;;;;4.80;4.47;;;-24.30;99.90;;;;;;5081214;28;20236;-75
2022/08/25 02:44:51;;;;;;;4.43;4.10;;;-19.30;99.90;;;;;;5076472;28;20256;-73
2022/08/25 02:47:16;;;;;;;4.17;3.97;;;0.30;99.90;;;;;;5076409;28;20176;-71
2022/08/25 02:49:42;;;;;;;5.40;4.90;;;18.60;99.90;;;;;;5076127;28;20256;-74
2022/08/25 02:52:08;;;;;;;4.93;4.60;;;18.80;99.90;;;;;;5076173;28;20224;-69
2022/08/25 02:54:34;;;;;;;4.80;4.47;;;18.70;99.90;;;;;;5076361;28;20194;-73
2022/08/25 02:57:00;;;;;;;6.10;5.50;;;18.70;99.90;;;;;;5076779;28;20224;-69
2022/08/25 02:59:26;;;;;;;5.17;4.77;;;18.70;99.90;;;;;;5077773;28;20502;-75
2022/08/25 03:01:52;;;;;;;5.07;4.73;;;18.70;99.90;;;;;;5077990;28;20191;-72
2022/08/25 03:04:18;;;;;;;4.70;4.40;;;18.70;99.90;;;;;;5080470;28;20194;-72
2022/08/25 03:06:45;;;;;;;4.87;4.53;;;18.70;99.90;;;;;;5080120;28;20248;-74
2022/08/25 03:09:11;;;;;;;5.13;4.73;;;18.60;99.90;;;;;;5079815;28;20224;-71
2022/08/25 03:11:37;;;;;;;4.33;4.03;;;18.60;99.90;;;;;;5080813;28;20215;-76
2022/08/25 03:14:05;;;;;;;5.10;4.70;;;18.60;99.90;;;;;;5081224;28;20594;-70
2022/08/25 03:16:31;;;;;;;4.83;4.43;;;18.50;99.90;;;;;;5080614;28;20183;-71
2022/08/25 03:18:58;;;;;;;4.57;4.27;;;18.40;99.90;;;;;;5080503;28;20179;-70
2022/08/25 03:21:24;;;;;;;5.13;4.63;;;18.20;99.90;;;;;;5080574;28;20210;-73
2022/08/25 03:23:50;;;;;;;4.87;4.43;;;18.00;99.90;;;;;;5079485;28;20503;-71
2022/08/25 03:29:04;;;;;;;5.23;4.50;;;16.70;99.90;;;;;;5081177;28;20194;-71
2022/08/25 03:31:31;;;;;;;5.17;4.50;;;16.00;99.90;;;;;;5079912;28;20183;-78
2022/08/25 03:33:57;;;;;;;5.37;4.63;;;16.40;99.90;;;;;;5079628;28;20187;-73
2022/08/25 03:36:24;;;;;;;9.53;4.40;;;15.80;99.90;;;;;;5086812;28;20301;-70
2022/08/25 03:38:51;;;;;;;21.90;5.00;;;15.60;99.90;;;;;;5079715;28;20183;-70
2022/08/25 03:41:27;;;;;;;4.20;4.00;;;15.90;99.90;;;;;;5079814;28;20182;-70
2022/08/25 03:43:54;;;;;;;5.60;5.10;;;16.80;99.90;;;;;;5080519;28;20218;-72
2022/08/25 03:46:26;;;;;;;7.10;5.23;;;16.20;99.90;;;;;;5079043;28;20215;-75
2022/08/25 03:48:52;;;;;;;5.30;4.90;;;16.10;99.90;;;;;;5079429;28;20203;-68
2022/08/25 03:51:20;;;;;;;5.47;4.97;;;16.50;99.90;;;;;;5079988;28;20180;-68
2022/08/25 03:53:46;;;;;;;7.17;4.70;;;15.60;99.90;;;;;;5079967;28;20198;-67
2022/08/25 03:56:12;;;;;;;5.47;5.00;;;15.50;99.90;;;;;;5079453;28;20613;-68
2022/08/25 03:58:37;;;;;;;6.43;4.70;;;15.60;99.90;;;;;;5079245;28;20194;-66
2022/08/25 04:01:03;;;;;;;5.47;4.90;;;15.70;99.90;;;;;;5079461;28;20194;-67
2022/08/25 04:03:29;;;;;;;5.47;4.80;;;15.60;99.90;;;;;;5079027;28;20590;-67
2022/08/25 04:05:55;;;;;;;5.37;4.87;;;10.20;99.90;;;;;;5079634;28;20207;-68
2022/08/25 04:08:21;;;;;;;5.73;5.03;;;10.10;99.90;;;;;;5079819;28;20240;-68
2022/08/25 04:10:47;;;;;;;4.87;4.47;;;9.90;99.90;;;;;;5078806;28;20179;-67
2022/08/25 04:13:13;;;;;;;8.33;5.13;;;9.80;99.90;;;;;;5080212;28;20187;-67
2022/08/25 04:15:42;;;;;;;5.63;4.87;;;10.00;99.90;;;;;;5079582;28;20183;-68
2022/08/25 04:18:10;;;;;;;4.50;4.20;;;9.90;99.90;;;;;;5078893;28;20731;-69
2022/08/25 04:20:37;;;;;;;4.80;4.40;;;10.20;99.90;;;;;;5079403;28;20203;-68
2022/08/25 04:23:03;;;;;;;4.77;4.37;;;10.90;99.90;;;;;;5084173;28;20186;-69
2022/08/25 04:25:29;;;;;;;6.73;4.70;;;10.90;99.90;;;;;;5078361;28;20209;-68
2022/08/25 04:27:54;;;;;;;4.87;4.33;;;10.50;99.90;;;;;;5078890;28;20196;-69
2022/08/25 04:30:20;;;;;;;6.30;5.80;;;9.60;99.90;;;;;;5078718;28;20184;-68
2022/08/25 04:32:47;;;;;;;5.57;4.37;;;8.10;99.90;;;;;;5093002;28;20195;-68
2022/08/25 04:35:13;;;;;;;11.03;5.03;;;7.80;99.90;;;;;;5079386;28;20187;-67
2022/08/25 04:37:39;;;;;;;5.27;4.87;;;7.40;99.90;;;;;;5079323;28;20187;-67
2022/08/25 04:40:06;;;;;;;5.67;5.20;;;4.20;99.90;;;;;;5078600;28;20190;-67
2022/08/25 04:42:32;;;;;;;5.47;5.00;;;18.30;99.90;;;;;;5077928;28;20236;-69
2022/08/25 04:45:00;;;;;;;6.10;5.20;;;18.50;99.90;;;;;;5078424;28;20207;-66
2022/08/25 04:47:27;;;;;;;5.93;5.37;;;18.50;99.90;;;;;;5078349;28;20237;-74
2022/08/25 04:49:55;;;;;;;5.50;4.90;;;18.50;99.90;;;;;;5085555;28;20203;-67
2022/08/25 04:52:23;;;;;;;6.57;5.53;;;18.50;99.90;;;;;;5084434;28;20176;-65
2022/08/25 04:54:48;;;;;;;5.00;4.60;;;18.60;99.90;;;;;;5088657;28;20191;-74
2022/08/25 04:57:14;;;;;;;6.20;5.23;;;18.50;99.90;;;;;;5078386;28;20188;-70
2022/08/25 04:59:40;;;;;;;4.70;4.20;;;18.50;99.90;;;;;;5077989;28;20199;-72
2022/08/25 05:02:06;;;;;;;5.50;5.00;;;18.50;99.90;;;;;;5079049;28;20183;-67
2022/08/25 05:04:34;;;;;;;6.03;5.03;;;18.60;99.90;;;;;;5078510;28;20203;-67
2022/08/25 05:07:00;;;;;;;5.07;4.57;;;18.60;99.90;;;;;;5085619;28;20175;-68
2022/08/25 05:09:27;;;;;;;5.10;4.70;;;18.60;99.90;;;;;;5082933;28;20243;-69
2022/08/25 05:11:53;;;;;;;5.50;5.10;;;18.60;99.90;;;;;;5082179;28;20482;-67
2022/08/25 05:14:21;;;;;;;5.10;4.60;;;18.60;99.90;;;;;;5078808;28;20179;-68
2022/08/25 05:16:48;;;;;;;8.73;5.03;;;18.60;99.90;;;;;;5081325;28;20182;-71
2022/08/25 05:19:14;;;;;;;5.97;5.13;;;18.70;99.90;;;;;;5083460;28;20178;-73
2022/08/25 05:21:40;;;;;;;5.50;4.90;;;18.70;99.90;;;;;;5075252;28;20183;-76
2022/08/25 05:24:06;;;;;;;5.77;5.37;;;18.80;99.90;;;;;;5077185;28;20270;-69
2022/08/25 05:26:35;;;;;;;7.80;4.97;;;18.80;99.90;;;;;;5077693;28;20187;-69
2022/08/25 05:29:03;;;;;;;5.73;5.20;;;18.90;99.90;;;;;;5077794;28;20194;-72
2022/08/25 05:31:30;;;;;;;5.00;4.60;;;18.90;99.90;;;;;;5077588;28;20183;-68
2022/08/25 05:33:57;;;;;;;4.83;4.53;;;19.00;99.90;;;;;;5078794;28;20179;-66
2022/08/25 05:36:26;;;;;;;4.90;4.50;;;19.10;99.90;;;;;;5078255;28;20182;-72
2022/08/25 05:38:52;;;;;;;6.30;4.60;;;19.20;99.90;;;;;;5080784;28;20324;-77
2022/08/25 05:41:24;;;;;;;7.10;5.30;;;19.30;99.90;;;;;;5077999;28;20179;-75
2022/08/25 05:43:51;;;;;;;5.40;4.90;;;19.30;99.90;;;;;;5077702;28;20605;-66
2022/08/25 05:46:18;;;;;;;5.27;4.57;;;19.40;99.90;;;;;;5077278;28;20202;-66
2022/08/25 05:48:46;;;;;;;10.03;4.63;;;19.50;99.90;;;;;;5082160;28;20199;-64
2022/08/25 05:51:15;;;;;;;5.60;5.10;;;19.60;99.90;;;;;;5078115;28;20175;-64
2022/08/25 05:53:46;;;;;;;5.97;5.13;;;19.60;99.90;;;;;;5077950;28;20186;-63
2022/08/25 05:56:17;;;;;;;7.40;4.60;;;19.60;99.90;;;;;;5075461;28;20550;-64
2022/08/25 05:58:47;;;;;;;5.07;4.20;;;19.30;99.90;;;;;;5075769;28;20534;-64
2022/08/25 06:04:14;;;;;;;4.90;4.50;;;20.20;99.90;;;;;;5077549;28;20193;-64
2022/08/25 06:06:41;;;;;;;6.10;4.40;;;20.40;99.90;;;;;;5076182;28;20252;-64
2022/08/25 06:09:08;;;;;;;7.73;4.87;;;20.60;99.90;;;;;;5076934;28;20259;-65
2022/08/25 06:11:36;;;;;;;5.70;4.80;;;20.70;99.90;;;;;;5076788;28;20186;-69
2022/08/25 06:14:02;;;;;;;7.80;6.47;;;20.70;99.90;;;;;;5076064;28;20575;-66
2022/08/25 06:16:28;;;;;;;5.57;3.70;;;20.60;99.90;;;;;;5079272;28;20209;-66
2022/08/25 06:18:54;;;;;;;7.87;4.87;;;20.60;99.90;;;;;;5078358;28;20979;-66
2022/08/25 06:21:20;;;;;;;6.63;4.03;;;20.30;99.90;;;;;;5080477;28;20248;-66
2022/08/25 06:23:45;;;;;;;7.00;4.33;;;20.00;99.90;;;;;;5095384;28;20179;-66
2022/08/25 06:26:12;;;;;;;7.97;4.30;;;18.90;99.90;;;;;;5082381;28;20198;-70
2022/08/25 06:28:38;;;;;;;6.83;4.20;;;14.40;99.90;;;;;;5084716;28;20551;-69
2022/08/25 06:31:04;;;;;;;5.20;4.67;;;16.50;99.90;;;;;;5078202;28;20219;-66
2022/08/25 06:33:30;;;;;;;4.00;3.70;;;16.10;99.90;;;;;;5078287;28;20175;-64
2022/08/25 06:35:57;;;;;;;5.87;3.83;;;21.60;99.90;;;;;;5086969;28;20507;-64
2022/08/25 06:38:24;;;;;;;7.97;5.77;;;21.60;99.90;;;;;;5084376;28;20180;-65
2022/08/25 06:40:51;;;;;;;10.23;5.27;;;21.70;99.90;;;;;;5077651;28;20266;-67
2022/08/25 06:43:20;;;;;;;6.10;4.20;;;21.80;99.90;;;;;;5083585;28;20489;-66
2022/08/25 06:45:47;;;;;;;5.87;4.60;;;21.90;99.90;;;;;;5078600;28;20245;-64
2022/08/25 06:48:13;;;;;;;18.77;5.33;;;21.90;99.90;;;;;;5083267;28;20167;-65
2022/08/25 06:50:40;;;;;;;12.37;5.13;;;22.00;99.90;;;;;;5088821;28;20195;-67
2022/08/25 06:53:06;;;;;;;8.13;4.23;;;21.90;99.90;;;;;;5075481;28;20171;-65
2022/08/25 06:55:33;;;;;;;5.60;4.03;;;21.70;99.90;;;;;;5081225;28;20497;-65
2022/08/25 06:58:00;;;;;;;5.37;3.53;;;19.20;99.90;;;;;;5076364;28;20183;-65
2022/08/25 07:00:26;;;;;;;5.20;4.20;;;16.80;99.90;;;;;;5076112;28;20248;-65
2022/08/25 07:02:52;;;;;;;4.33;3.97;;;15.80;99.90;;;;;;5081676;28;20174;-65
2022/08/25 07:05:17;;;;;;;3.20;3.00;;;16.00;99.90;;;;;;5080708;28;20202;-64
2022/08/25 07:07:45;;;;;;;4.43;3.30;;;15.20;99.90;;;;;;5077488;28;20182;-65
2022/08/25 07:10:11;;;;;;;9.23;4.07;;;-40.00;98.10;;;;;;5078643;28;20181;-64
2022/08/25 07:12:38;;;;;;;3.03;2.73;;;-40.00;97.60;;;;;;5075655;28;20193;-65
2022/08/25 07:15:04;;;;;;;6.30;3.90;;;-40.00;96.90;;;;;;5079621;28;20187;-64
2022/08/25 07:17:30;;;;;;;6.80;3.40;;;-40.00;96.40;;;;;;5079159;28;20621;-64
2022/08/25 07:19:56;;;;;;;4.40;3.10;;;-40.00;95.90;;;;;;5075977;28;20258;-65
2022/08/25 07:22:25;;;;;;;5.60;3.17;;;-40.00;95.60;;;;;;5076643;28;20482;-65
2022/08/25 07:24:51;;;;;;;4.37;3.60;;;-40.00;95.30;;;;;;5078613;28;20195;-65
2022/08/25 07:27:17;;;;;;;5.73;3.23;;;-40.00;94.30;;;;;;5090915;28;20601;-65
2022/08/25 07:29:43;;;;;;;5.03;3.20;;;-40.00;92.80;;;;;;5075869;28;20182;-67
2022/08/25 07:32:09;;;;;;;3.63;2.90;;;-40.00;92.40;;;;;;5081703;28;20184;-66
2022/08/25 07:37:21;;;;;;;6.13;3.97;;;-40.00;92.50;;;;;;5084951;28;20178;-65
2022/08/25 07:39:47;;;;;;;3.13;2.83;;;-40.00;92.40;;;;;;5079511;28;20172;-65
2022/08/25 07:42:12;;;;;;;11.13;3.63;;;-40.00;90.80;;;;;;5075528;28;20609;-66
2022/08/25 07:44:39;;;;;;;8.37;4.07;;;-40.00;89.30;;;;;;5087167;28;20632;-67
2022/08/25 07:47:04;;;;;;;3.90;2.97;;;-40.00;90.20;;;;;;5078751;28;20167;-66
2022/08/25 07:49:30;;;;;;;2.73;2.20;;;-40.00;89.20;;;;;;5081463;28;20191;-65
2022/08/25 07:51:56;;;;;;;3.03;2.70;;;-40.00;85.00;;;;;;5084002;28;20590;-65
2022/08/25 07:54:22;;;;;;;5.23;2.13;;;-40.00;86.80;;;;;;5089301;28;20654;-65
2022/08/25 07:56:48;;;;;;;3.37;3.07;;;-40.00;86.00;;;;;;5085319;28;20234;-64
2022/08/25 07:59:14;;;;;;;5.73;2.80;;;-40.00;85.10;;;;;;5083917;28;20621;-66
2022/08/25 08:01:40;;;;;;;3.67;2.87;;;-40.00;84.00;;;;;;5086229;28;20174;-66
2022/08/25 08:04:05;;;;;;;6.63;3.17;;;-40.00;83.80;;;;;;5082664;28;20577;-67
2022/08/25 08:06:31;;;;;;;3.30;2.50;;;-40.00;84.70;;;;;;5079933;28;20301;-67
2022/08/25 08:08:58;;;;;;;3.30;3.10;;;-40.00;80.20;;;;;;5078888;28;20213;-67
2022/08/25 08:11:31;;;;;;;2.30;2.20;;;-40.00;81.00;;;;;;5084570;28;20189;-67
2022/08/25 08:13:58;;;;;;;6.93;3.23;;;-40.00;80.80;;;;;;5079682;28;20179;-67
2022/08/25 08:16:27;;;;;;;2.77;2.20;;;-40.00;82.30;;;;;;5082598;28;20639;-67
2022/08/25 08:18:53;;;;;;;5.40;2.53;;;-40.00;80.80;;;;;;5079264;28;20386;-67
2022/08/25 08:21:23;;;;;;;6.20;2.37;;;-40.00;80.50;;;;;;5083118;28;20176;-64
2022/08/25 08:23:50;;;;;;;7.30;2.90;;;-40.00;82.10;;;;;;5085513;28;20183;-66
2022/08/25 08:26:17;;;;;;;4.83;3.13;;;-40.00;82.10;;;;;;5084888;28;20207;-67
2022/08/25 08:28:42;;;;;;;3.17;2.90;;;-40.00;80.80;;;;;;5081330;28;20182;-68
2022/08/25 08:31:08;;;;;;;5.30;2.73;;;-40.00;80.30;;;;;;5083099;28;20187;-66
2022/08/25 08:33:34;;;;;;;3.10;2.90;;;-40.00;80.00;;;;;;5078668;28;20527;-68
2022/08/25 08:36:07;;;;;;;3.00;2.13;;;-40.00;78.40;;;;;;5080021;28;20194;-66
2022/08/25 08:38:34;;;;;;;2.47;2.27;;;-40.00;78.70;;;;;;5082675;28;20466;-68
2022/08/25 08:44:18;;;;;;;10.07;3.10;;;-40.00;77.70;;;;;;5078669;28;20190;-66
2022/08/25 08:47:17;;;;;;;8.07;2.50;;;-40.00;75.70;;;;;;5077991;28;20167;-67
2022/08/25 08:50:15;;;;;;;5.07;3.13;;;-40.00;75.50;;;;;;5087809;28;20198;-65
2022/08/25 08:52:56;;;;;;;3.53;2.70;;;-40.00;75.40;;;;;;5078272;28;20184;-66
2022/08/25 08:55:43;;;;;;;2.33;2.13;;;-40.00;75.50;;;;;;5085580;28;20228;-67
2022/08/25 08:58:18;;;;;;;4.50;2.50;;;-40.00;74.40;;;;;;5079547;28;20188;-68
2022/08/25 09:00:49;;;;;;;6.60;2.20;;;-40.00;72.60;;;;;;5088727;28;20286;-67
2022/08/25 09:03:32;;;;;;;4.30;2.07;;;-40.00;71.60;;;;;;5078328;28;20308;-67
2022/08/25 09:06:04;;;;;;;3.47;2.27;;;-40.00;70.20;;;;;;5079540;28;20206;-67
2022/08/25 09:08:30;;;;;;;4.00;2.53;;;-40.00;67.00;;;;;;5078159;28;20249;-67
2022/08/25 09:11:37;;;;;;;5.83;5.00;;;-40.00;66.00;;;;;;5078446;28;20193;-68
2022/08/25 09:14:15;;;;;;;2.90;2.37;;;-40.00;66.70;;;;;;5045017;28;20183;-65
2022/08/25 09:17:05;;;;;;;3.03;2.03;;;-40.00;65.10;;;;;;5082705;28;20532;-67
2022/08/25 09:19:43;;;;;;;4.40;2.40;;;-40.00;63.10;;;;;;5078782;28;20185;-66
2022/08/25 09:22:09;;;;;;;3.10;2.50;;;-40.00;63.10;;;;;;5083634;28;20191;-66
2022/08/25 09:25:09;;;;;;;4.73;2.27;;;-40.00;64.40;;;;;;5084142;28;20223;-66
2022/08/25 09:27:53;;;;;;;2.80;1.83;;;-40.00;63.40;;;;;;5084027;28;20167;-66
2022/08/25 09:30:20;;;;;;;4.37;2.27;;;-40.00;63.30;;;;;;5078073;28;20265;-67
2022/08/25 09:32:49;;;;;;;2.83;2.40;;;-40.00;63.30;;;;;;5079389;28;20305;-65
2022/08/25 09:35:27;;;;;;;7.70;2.23;;;-40.00;61.40;;;;;;5077822;28;20178;-67
2022/08/25 09:38:06;;;;;;;3.90;2.23;;;-40.00;59.70;;;;;;5094176;28;20193;-65
2022/08/25 09:40:36;;;;;;;5.90;3.03;;;-40.00;59.00;;;;;;5079972;28;20182;-67
2022/08/25 09:43:19;;;;;;;3.20;1.77;;;-40.00;58.20;;;;;;5080344;28;20228;-66
2022/08/25 09:45:48;;;;;;;4.27;2.57;;;-40.00;58.70;;;;;;5081232;28;20284;-66
2022/08/25 09:48:41;;;;;;;4.33;2.20;;;-40.00;58.10;;;;;;5080269;28;20175;-66
2022/08/25 09:51:34;;;;;;;2.90;2.67;;;-40.00;57.80;;;;;;5080244;28;20199;-65
2022/08/25 09:54:12;;;;;;;2.73;2.03;;;-40.00;53.90;;;;;;5087520;28;20853;-66
2022/08/25 09:57:00;;;;;;;4.30;2.20;;;-40.00;53.40;;;;;;5076562;28;20189;-67
2022/08/25 09:59:33;;;;;;;2.13;1.97;;;-40.00;53.00;;;;;;5077411;28;20194;-66
2022/08/25 10:02:05;;;;;;;13.53;4.13;;;-40.00;53.90;;;;;;5076427;28;20656;-67
2022/08/25 10:04:35;;;;;;;4.43;1.87;;;-40.00;52.20;;;;;;5077011;28;20336;-67
2022/08/25 10:07:03;;;;;;;2.80;2.00;;;-40.00;52.00;;;;;;5076278;28;20524;-66
2022/08/25 10:09:41;;;;;;;3.90;1.93;;;-40.00;49.00;;;;;;5089668;28;20217;-65
2022/08/25 10:12:23;;;;;;;3.57;2.03;;;-40.00;48.70;;;;;;5077206;28;20194;-64
2022/08/25 10:14:50;;;;;;;4.70;2.60;;;-40.00;48.70;;;;;;5082372;28;20195;-65
2022/08/25 10:17:29;;;;;;;2.83;1.57;;;-40.00;46.50;;;;;;5077341;28;20222;-67
2022/08/25 10:20:16;;;;;;;5.60;2.37;;;-40.00;47.60;;;;;;5075987;28;20269;-65
2022/08/25 10:22:43;;;;;;;2.20;2.00;;;-40.00;46.80;;;;;;5083429;28;20183;-67
2022/08/25 10:25:12;;;;;;;3.60;2.67;;;-40.00;47.00;;;;;;5077539;28;20250;-67
2022/08/25 10:28:04;;;;;;;6.67;2.17;;;-40.00;47.50;;;;;;5077341;28;20179;-67
2022/08/25 10:30:58;;;;;;;2.50;1.70;;;-40.00;45.40;;;;;;5076523;28;20531;-66
2022/08/25 10:34:02;;;;;;;2.80;2.67;;;-40.00;44.90;;;;;;5076079;28;20190;-66
2022/08/25 10:36:56;;;;;;;2.27;2.17;;;-40.00;41.70;;;;;;5075667;28;20285;-65
2022/08/25 10:39:31;;;;;;;3.97;1.87;;;-40.00;41.00;;;;;;5083637;28;20193;-66
2022/08/25 10:42:14;;;;;;;3.10;1.80;;;-40.00;43.30;;;;;;5082188;28;20194;-68
2022/08/25 10:48:21;;;;;;;3.40;2.30;;;-40.00;43.00;;;;;;5082227;28;20229;-67
2022/08/25 10:50:53;;;;;;;3.00;2.20;;;-40.00;41.30;;;;;;5081468;28;20209;-66
2022/08/25 10:53:33;;;;;;;3.85;1.42;;;-40.00;40.40;;;;;;5081637;28;20187;-68
2022/08/25 10:56:05;;;;;;;3.63;1.75;;;-40.00;40.50;;;;;;5081233;28;20493;-67
2022/08/25 10:58:51;;;;;;;3.85;2.13;;;-40.00;40.30;;;;;;5079114;28;20585;-67
2022/08/25 11:01:48;;;;;;;2.75;2.30;;;-40.00;39.20;;;;;;5080470;28;20187;-68
2022/08/25 11:04:19;;;;;;;3.42;2.17;;;-40.00;40.10;;;;;;5079776;28;20239;-68
2022/08/25 11:07:11;;;;;;;3.15;2.00;;;-40.00;39.20;;;;;;5078383;28;20273;-68
2022/08/25 11:09:41;;;;;;;2.10;1.48;;;-40.00;38.20;;;;;;5068500;28;20396;-69
2022/08/25 11:12:22;;;;;;;2.10;1.88;;;-40.00;37.40;;;;;;5081734;28;20175;-69
2022/08/25 11:14:56;;;;;;;2.45;2.10;;;-40.00;35.20;;;;;;5075418;28;20183;-68
2022/08/25 11:17:27;;;;;;;3.75;1.52;;;-40.00;35.40;;;;;;5076034;28;20198;-68
2022/08/25 11:20:02;;;;;;;2.35;1.90;;;-40.00;33.90;;;;;;5077524;28;20207;-68
2022/08/25 11:22:49;;;;;;;3.58;2.65;;;-40.00;33.70;;;;;;5088811;28;20178;-68
2022/08/25 11:25:26;;;;;;;3.22;1.90;;;-40.00;35.10;;;;;;5083958;28;20202;-67
2022/08/25 11:28:15;;;;;;;3.75;1.67;;;-40.00;34.40;;;;;;5081441;28;20191;-68
2022/08/25 11:30:43;;;;;;;4.30;2.13;;;-40.00;35.40;;;;;;5082797;28;20190;-67
2022/08/25 11:33:16;;;;;;;2.15;1.58;;;-40.00;34.70;;;;;;5079341;28;20201;-68
2022/08/25 11:35:53;;;;;;;2.65;2.25;;;-40.00;35.50;;;;;;5079548;28;20543;-67
2022/08/25 11:38:56;;;;;;;5.75;1.65;;;-40.00;33.30;;;;;;5080019;28;20179;-67
2022/08/25 11:42:11;;;;;;;1.90;1.80;;;-40.00;34.20;;;;;;5079696;28;20270;-66
2022/08/25 11:45:10;;;;;;;3.35;1.92;;;-40.00;33.80;;;;;;5025804;28;20192;-68
2022/08/25 11:48:04;;;;;;;7.20;2.58;;;-40.00;33.10;;;;;;5017626;28;20186;-68
2022/08/25 11:50:34;;;;;;;1.85;1.75;;;-40.00;32.20;;;;;;5084619;28;20214;-67
2022/08/25 11:53:23;;;;;;;5.85;2.22;;;-40.00;30.50;;;;;;5086838;28;20308;-67
2022/08/25 11:55:53;;;;;;;2.22;2.08;;;-40.00;28.80;;;;;;5074834;28;20644;-71
2022/08/25 11:58:43;;;;;;;6.93;2.63;;;-40.00;29.10;;;;;;5090563;28;20186;-72
2022/08/25 12:01:30;;;;;;;2.45;1.92;;;-25.10;33.90;;;;;;5085076;28;20465;-70
2022/08/25 12:04:34;;;;;;;3.13;2.25;;;-21.00;34.90;;;;;;5089352;28;20190;-69
2022/08/25 12:07:06;;;;;;;2.80;2.10;;;-17.30;35.70;;;;;;5085609;28;20213;-71
2022/08/25 12:09:54;;;;;;;3.15;1.77;;;-18.70;36.40;;;;;;5084510;28;20194;-73
2022/08/25 12:12:42;;;;;;;3.33;3.13;;;-22.70;34.50;;;;;;5086171;28;20196;-72
2022/08/25 12:15:27;;;;;;;2.15;2.05;;;-13.30;37.20;;;;;;5078840;28;20183;-70
2022/08/25 12:18:21;;;;;;;2.35;2.15;;;-2.70;43.80;;;;;;5078753;28;20177;-74
2022/08/25 12:20:53;;;;;;;2.22;2.10;;;10.80;46.90;;;;;;5079736;28;20210;-69
2022/08/25 12:23:30;;;;;;;2.50;2.30;;;16.40;48.20;;;;;;5077889;28;20175;-69
2022/08/25 12:26:43;;;;;;;3.90;1.80;;;20.30;48.50;;;;;;5082617;28;20203;-68
2022/08/25 12:29:23;;;;;;;2.92;2.10;;;21.30;47.90;;;;;;5077213;28;20218;-67
2022/08/25 12:32:06;;;;;;;2.53;2.30;;;21.30;50.70;;;;;;5078347;28;20179;-70
2022/08/25 12:34:58;;;;;;;2.00;1.90;;;23.40;47.30;;;;;;5078776;28;20197;-69
2022/08/25 12:37:24;;;;;;;2.78;2.58;;;23.60;46.40;;;;;;5078694;28;20172;-69
2022/08/25 12:39:50;;;;;;;2.38;2.17;;;25.00;46.30;;;;;;5077914;28;20179;-69
2022/08/25 12:42:33;;;;;;;9.45;2.53;;;25.90;44.70;;;;;;5079187;28;20525;-68
2022/08/25 12:45:24;;;;;;;2.30;2.20;;;25.40;43.60;;;;;;5078655;28;20209;-68
2022/08/25 12:47:53;;;;;;;2.38;2.28;;;25.40;44.90;;;;;;5082317;28;20194;-69
2022/08/25 12:50:24;;;;;;;3.15;2.95;;;24.60;44.80;;;;;;5077601;28;20199;-68
2022/08/25 12:52:52;;;;;;;2.15;2.05;;;25.70;45.40;;;;;;5082147;28;20180;-70
2022/08/25 12:55:20;;;;;;;2.55;2.35;;;25.60;42.40;;;;;;5078269;28;20491;-69
2022/08/25 12:57:57;;;;;;;3.20;2.90;;;26.00;41.80;;;;;;5077283;28;20183;-73
2022/08/25 13:00:48;;;;;;;2.95;2.75;;;26.50;40.50;;;;;;5084501;28;20206;-67
2022/08/25 13:03:41;;;;;;;8.98;5.35;;;25.80;43.30;;;;;;5070258;28;20217;-66
2022/08/25 13:06:31;;;;;;;4.45;2.60;;;26.60;43.90;;;;;;5084088;28;20214;-67
2022/08/25 13:09:09;;;;;;;2.13;2.10;;;28.00;41.90;;;;;;5078546;28;20210;-67
2022/08/25 13:11:55;;;;;;;3.28;2.25;;;28.50;38.70;;;;;;5082776;28;20175;-67
2022/08/25 13:14:38;;;;;;;2.90;2.40;;;28.40;39.30;;;;;;5077521;28;20561;-66
2022/08/25 13:17:04;;;;;;;2.33;2.13;;;28.30;40.90;;;;;;5077703;28;20179;-67
2022/08/25 13:19:30;;;;;;;2.65;2.45;;;28.30;40.00;;;;;;5089049;28;20187;-72
2022/08/25 13:21:59;;;;;;;3.60;2.55;;;28.20;40.30;;;;;;5077973;28;20485;-67